createdAt,value
2022-12-31T00:01:04.213Z,0.90
2022-12-31T00:03:32.162Z,0.90
2022-12-31T00:06:00.368Z,0.90
2022-12-31T00:08:28.112Z,0.90
2022-12-31T00:10:56.135Z,1.00
2022-12-31T00:13:24.503Z,0.80
2022-12-31T00:15:52.210Z,0.90
2022-12-31T00:18:19.742Z,0.90
2022-12-31T00:20:47.586Z,1.00
2022-12-31T00:23:15.457Z,1.00
2022-12-31T00:25:43.090Z,1.00
2022-12-31T00:28:10.780Z,0.90
2022-12-31T00:30:38.641Z,0.90
2022-12-31T00:33:06.241Z,1.10
2022-12-31T00:35:34.922Z,0.90
2022-12-31T00:38:02.507Z,0.80
2022-12-31T00:40:30.015Z,0.90
2022-12-31T00:42:57.661Z,1.00
2022-12-31T00:45:25.147Z,1.10
2022-12-31T00:47:53.141Z,1.10
2022-12-31T00:50:20.883Z,1.20
2022-12-31T00:52:48.520Z,1.30
2022-12-31T00:55:16.251Z,1.30
2022-12-31T00:57:44.101Z,1.20
2022-12-31T01:00:12.375Z,1.10
2022-12-31T01:02:40.533Z,1.10
2022-12-31T01:05:08.837Z,1.10
2022-12-31T01:07:38.551Z,1.20
2022-12-31T01:10:06.713Z,0.90
2022-12-31T01:12:34.251Z,0.90
2022-12-31T01:15:02.075Z,1.00
2022-12-31T01:17:30.052Z,1.10
2022-12-31T01:19:57.789Z,1.10
2022-12-31T01:22:25.412Z,1.20
2022-12-31T01:24:52.865Z,1.30
2022-12-31T01:27:21.908Z,1.10
2022-12-31T01:29:49.573Z,1.10
2022-12-31T01:32:17.145Z,1.20
2022-12-31T01:34:45.102Z,1.20
2022-12-31T01:37:12.713Z,1.20
2022-12-31T01:39:40.350Z,1.10
2022-12-31T01:42:11.775Z,1.20
2022-12-31T01:44:39.402Z,1.30
2022-12-31T01:47:16.157Z,1.30
2022-12-31T01:49:57.001Z,1.40
2022-12-31T01:52:34.026Z,1.30
2022-12-31T01:55:22.762Z,1.40
2022-12-31T01:57:55.079Z,1.40
2022-12-31T02:00:22.950Z,1.50
2022-12-31T02:02:51.198Z,1.40
2022-12-31T02:05:36.129Z,1.50
2022-12-31T02:08:04.455Z,1.40
2022-12-31T02:10:32.815Z,1.50
2022-12-31T02:13:00.645Z,1.40
2022-12-31T02:16:04.067Z,1.50
2022-12-31T02:18:50.501Z,1.30
2022-12-31T02:21:30.127Z,1.40
2022-12-31T02:24:19.613Z,1.40
2022-12-31T02:26:58.932Z,1.10
2022-12-31T02:30:05.493Z,1.30
2022-12-31T02:32:36.150Z,1.30
2022-12-31T02:35:22.501Z,1.40
2022-12-31T02:37:55.416Z,1.50
2022-12-31T02:40:23.711Z,1.50
2022-12-31T02:42:55.317Z,1.50
2022-12-31T02:45:35.741Z,1.60
2022-12-31T02:48:11.584Z,1.40
2022-12-31T02:50:57.624Z,1.40
2022-12-31T02:53:48.125Z,1.30
2022-12-31T02:56:30.818Z,1.40
2022-12-31T02:59:21.925Z,1.40
2022-12-31T03:02:14.604Z,1.50
2022-12-31T03:05:03.279Z,1.40
2022-12-31T03:07:32.854Z,1.50
2022-12-31T03:10:01.620Z,1.50
2022-12-31T03:12:48.342Z,1.40
2022-12-31T03:15:34.643Z,1.30
2022-12-31T03:18:04.265Z,1.40
2022-12-31T03:20:56.549Z,1.50
2022-12-31T03:23:28.544Z,1.60
2022-12-31T03:25:57.295Z,1.70
2022-12-31T03:28:27.705Z,1.70
2022-12-31T03:31:00.455Z,1.70
2022-12-31T03:33:41.973Z,1.50
2022-12-31T03:36:14.116Z,1.60
2022-12-31T03:38:42.194Z,1.70
2022-12-31T03:41:11.386Z,1.60
2022-12-31T03:43:39.187Z,1.70
2022-12-31T03:46:06.861Z,1.70
2022-12-31T03:48:34.462Z,1.70
2022-12-31T03:51:02.496Z,1.60
2022-12-31T03:53:30.605Z,1.70
2022-12-31T03:55:58.153Z,1.70
2022-12-31T03:58:25.961Z,1.70
2022-12-31T04:00:53.741Z,1.70
2022-12-31T04:03:21.485Z,1.70
2022-12-31T04:05:56.211Z,1.80
2022-12-31T04:08:24.526Z,1.80
2022-12-31T04:10:52.197Z,1.80
2022-12-31T04:13:20.131Z,1.80
2022-12-31T04:15:51.171Z,1.80
2022-12-31T04:18:18.809Z,1.80
2022-12-31T04:20:46.830Z,1.70
2022-12-31T04:23:14.277Z,1.80
2022-12-31T04:25:41.958Z,2.00
2022-12-31T04:28:12.264Z,2.20
2022-12-31T04:30:40.860Z,2.40
2022-12-31T04:33:08.446Z,2.50
2022-12-31T04:35:36.186Z,2.20
2022-12-31T04:38:04.499Z,2.30
2022-12-31T04:40:32.283Z,2.30
2022-12-31T04:42:59.684Z,2.20
2022-12-31T04:45:27.985Z,2.20
2022-12-31T04:47:55.715Z,2.30
2022-12-31T04:50:23.343Z,2.20
2022-12-31T04:52:50.852Z,2.20
2022-12-31T04:55:18.457Z,2.40
2022-12-31T04:57:46.429Z,2.40
2022-12-31T05:00:14.438Z,2.50
2022-12-31T05:02:42.187Z,2.60
2022-12-31T05:05:10.240Z,2.50
2022-12-31T05:07:37.751Z,2.60
2022-12-31T05:10:05.987Z,2.70
2022-12-31T05:12:33.743Z,2.70
2022-12-31T05:15:02.381Z,2.70
2022-12-31T05:17:29.960Z,2.70
2022-12-31T05:19:57.513Z,2.70
2022-12-31T05:22:31.179Z,2.70
2022-12-31T05:24:59.599Z,2.70
2022-12-31T05:27:31.486Z,2.60
2022-12-31T05:29:59.930Z,2.70
2022-12-31T05:32:27.510Z,2.80
2022-12-31T05:34:55.127Z,2.80
2022-12-31T05:37:23.098Z,2.80
2022-12-31T05:39:50.770Z,2.90
2022-12-31T05:42:18.664Z,2.90
2022-12-31T05:44:46.523Z,2.90
2022-12-31T05:47:14.439Z,3.00
2022-12-31T05:49:42.093Z,3.00
2022-12-31T05:52:09.792Z,3.00
2022-12-31T05:54:37.647Z,3.20
2022-12-31T05:57:05.726Z,3.20
2022-12-31T05:59:34.234Z,3.10
2022-12-31T06:02:02.104Z,3.00
2022-12-31T06:04:30.211Z,3.10
2022-12-31T06:06:58.054Z,3.10
2022-12-31T06:09:25.868Z,3.20
2022-12-31T06:11:53.958Z,3.20
2022-12-31T06:14:21.561Z,3.10
2022-12-31T06:16:49.070Z,3.10
2022-12-31T06:19:17.695Z,3.10
2022-12-31T06:21:45.494Z,3.20
2022-12-31T06:24:13.118Z,3.20
2022-12-31T06:26:40.738Z,3.20
2022-12-31T06:29:09.391Z,3.30
2022-12-31T06:31:38.182Z,3.30
2022-12-31T06:34:05.702Z,3.30
2022-12-31T06:36:33.253Z,3.40
2022-12-31T06:39:02.261Z,3.40
2022-12-31T06:41:31.227Z,3.50
2022-12-31T06:43:58.981Z,3.60
2022-12-31T06:46:26.888Z,3.60
2022-12-31T06:48:55.038Z,3.50
2022-12-31T06:51:23.301Z,3.50
2022-12-31T06:53:52.421Z,3.60
2022-12-31T06:56:32.993Z,3.60
2022-12-31T06:59:01.966Z,3.60
2022-12-31T07:01:59.284Z,3.70
2022-12-31T07:04:39.043Z,3.70
2022-12-31T07:07:13.188Z,3.80
2022-12-31T07:09:46.288Z,3.70
2022-12-31T07:12:36.445Z,3.80
2022-12-31T07:15:14.192Z,3.80
2022-12-31T07:17:53.956Z,3.90
2022-12-31T07:20:22.360Z,3.90
2022-12-31T07:22:50.651Z,3.90
2022-12-31T07:25:20.170Z,4.00
2022-12-31T07:28:10.015Z,4.00
2022-12-31T07:31:02.562Z,4.00
2022-12-31T07:33:41.121Z,4.10
2022-12-31T07:36:14.951Z,4.10
2022-12-31T07:38:54.171Z,4.10
2022-12-31T07:41:34.049Z,4.10
2022-12-31T07:44:13.180Z,3.90
2022-12-31T07:46:59.431Z,4.00
2022-12-31T07:49:29.491Z,4.00
2022-12-31T07:51:58.157Z,3.90
2022-12-31T07:54:26.289Z,4.00
2022-12-31T07:56:54.076Z,4.20
2022-12-31T07:59:32.200Z,4.20
2022-12-31T08:02:29.322Z,4.20
2022-12-31T08:05:16.694Z,4.40
2022-12-31T08:08:07.225Z,4.40
2022-12-31T08:10:41.059Z,4.50
2022-12-31T08:13:13.305Z,4.60
2022-12-31T08:15:41.864Z,4.50
2022-12-31T08:18:11.754Z,4.70
2022-12-31T08:21:15.985Z,4.30
2022-12-31T08:24:02.200Z,4.60
2022-12-31T08:26:46.952Z,4.80
2022-12-31T08:29:40.699Z,4.90
2022-12-31T08:32:14.496Z,5.00
2022-12-31T08:35:10.696Z,5.00
2022-12-31T08:37:44.328Z,5.10
2022-12-31T08:40:29.350Z,5.00
2022-12-31T08:43:21.987Z,5.10
2022-12-31T08:45:53.493Z,5.10
2022-12-31T08:48:42.691Z,5.20
2022-12-31T08:51:21.672Z,5.30
2022-12-31T08:53:50.251Z,5.40
2022-12-31T08:56:29.979Z,5.50
2022-12-31T08:59:23.263Z,5.60
2022-12-31T09:02:28.307Z,5.80
2022-12-31T09:05:22.448Z,5.80
2022-12-31T09:08:20.762Z,5.80
2022-12-31T09:11:16.375Z,5.70
2022-12-31T09:13:58.877Z,5.50
2022-12-31T09:16:53.567Z,5.70
2022-12-31T09:19:21.687Z,5.90
2022-12-31T09:21:50.552Z,5.90
2022-12-31T09:24:18.878Z,5.90
2022-12-31T09:27:09.867Z,6.00
2022-12-31T09:29:40.911Z,5.90
2022-12-31T09:32:14.893Z,5.90
2022-12-31T09:34:53.590Z,5.80
2022-12-31T09:37:50.345Z,6.00
2022-12-31T09:40:55.998Z,6.20
2022-12-31T09:43:48.860Z,5.80
2022-12-31T09:46:38.318Z,5.80
2022-12-31T09:49:12.336Z,6.10
2022-12-31T09:51:56.301Z,6.20
2022-12-31T09:55:09.439Z,6.20
2022-12-31T09:57:46.870Z,6.30
2022-12-31T10:00:43.872Z,6.30
2022-12-31T10:03:36.846Z,6.30
2022-12-31T10:06:40.218Z,6.50
2022-12-31T10:09:26.526Z,6.60
2022-12-31T10:12:21.839Z,6.70
2022-12-31T10:14:54.118Z,6.80
2022-12-31T10:17:40.590Z,6.70
2022-12-31T10:20:26.875Z,6.90
2022-12-31T10:23:43.229Z,7.30
2022-12-31T10:26:13.952Z,7.50
2022-12-31T10:28:45.929Z,7.10
2022-12-31T10:31:33.767Z,7.20
2022-12-31T10:34:14.096Z,7.40
2022-12-31T10:36:54.822Z,7.50
2022-12-31T10:39:34.830Z,7.60
2022-12-31T10:42:18.487Z,7.60
2022-12-31T10:45:12.362Z,7.80
2022-12-31T10:48:08.268Z,7.80
2022-12-31T10:51:07.702Z,7.90
2022-12-31T10:54:07.541Z,7.90
2022-12-31T10:57:16.822Z,7.80
2022-12-31T11:00:35.125Z,7.90
2022-12-31T11:03:28.869Z,7.90
2022-12-31T11:06:15.991Z,7.50
2022-12-31T11:09:13.846Z,7.70
2022-12-31T11:12:11.046Z,7.90
2022-12-31T11:14:58.774Z,7.90
2022-12-31T11:17:29.731Z,8.00
2022-12-31T11:20:13.824Z,8.10
2022-12-31T11:22:51.428Z,7.90
2022-12-31T11:25:31.197Z,8.70
2022-12-31T11:28:01.861Z,9.10
2022-12-31T11:31:06.940Z,9.30
2022-12-31T11:34:26.094Z,9.60
2022-12-31T11:37:11.307Z,9.50
2022-12-31T11:39:59.355Z,9.40
2022-12-31T11:42:40.003Z,8.70
2022-12-31T11:45:23.219Z,8.80
2022-12-31T11:48:38.088Z,8.80
2022-12-31T11:51:27.132Z,8.80
2022-12-31T11:54:32.868Z,9.00
2022-12-31T11:57:23.708Z,9.00
2022-12-31T12:00:14.453Z,9.30
2022-12-31T12:03:05.357Z,8.80
2022-12-31T12:05:35.391Z,8.60
2022-12-31T12:08:04.181Z,8.70
2022-12-31T12:10:42.442Z,8.70
2022-12-31T12:13:29.981Z,8.60
2022-12-31T12:16:00.731Z,8.50
2022-12-31T12:18:34.245Z,8.50
2022-12-31T12:21:10.177Z,8.40
2022-12-31T12:23:39.810Z,8.40
2022-12-31T12:26:25.840Z,8.20
2022-12-31T12:28:54.101Z,8.20
2022-12-31T12:31:23.982Z,8.40
2022-12-31T12:33:53.664Z,8.20
2022-12-31T12:36:22.765Z,8.20
2022-12-31T12:39:07.275Z,8.30
2022-12-31T12:41:35.219Z,8.20
2022-12-31T12:44:16.093Z,8.20
2022-12-31T12:46:53.085Z,8.10
2022-12-31T12:49:31.704Z,8.10
2022-12-31T12:52:27.799Z,8.00
2022-12-31T12:55:20.492Z,7.90
2022-12-31T12:58:19.330Z,7.50
2022-12-31T13:01:21.610Z,7.50
2022-12-31T13:04:34.019Z,7.50
2022-12-31T13:07:19.582Z,7.50
2022-12-31T13:09:56.376Z,7.50
2022-12-31T13:12:24.431Z,7.60
2022-12-31T13:15:17.487Z,7.60
2022-12-31T13:18:01.664Z,7.70
2022-12-31T13:20:54.866Z,7.30
2022-12-31T13:23:37.796Z,7.60
2022-12-31T13:26:16.419Z,7.50
2022-12-31T13:28:47.507Z,7.60
2022-12-31T13:31:30.297Z,7.70
2022-12-31T13:34:07.828Z,7.60
2022-12-31T13:36:41.168Z,7.30
2022-12-31T13:39:17.661Z,7.20
2022-12-31T13:42:27.782Z,7.50
2022-12-31T13:45:14.279Z,7.60
2022-12-31T13:47:57.792Z,7.50
2022-12-31T13:50:53.643Z,7.60
2022-12-31T13:53:27.595Z,7.60
2022-12-31T13:56:05.375Z,7.40
2022-12-31T13:58:51.089Z,7.40
2022-12-31T14:01:26.255Z,7.40
2022-12-31T14:04:05.123Z,6.90
2022-12-31T14:07:07.619Z,7.10
2022-12-31T14:09:36.985Z,7.20
2022-12-31T14:12:24.321Z,7.10
2022-12-31T14:14:55.789Z,7.10
2022-12-31T14:17:48.283Z,7.20
2022-12-31T14:20:38.699Z,7.20
2022-12-31T14:23:28.428Z,7.20
2022-12-31T14:26:19.413Z,7.00
2022-12-31T14:29:11.949Z,6.90
2022-12-31T14:31:54.936Z,6.50
2022-12-31T14:35:15.056Z,6.60
2022-12-31T14:37:54.943Z,6.60
2022-12-31T14:40:35.129Z,6.60
2022-12-31T14:43:19.151Z,6.60
2022-12-31T14:46:05.977Z,6.60
2022-12-31T14:48:56.581Z,6.60
2022-12-31T14:51:29.335Z,6.30
2022-12-31T14:54:01.181Z,6.40
2022-12-31T14:56:43.491Z,6.10
2022-12-31T14:59:28.536Z,6.20
2022-12-31T15:01:58.948Z,6.10
2022-12-31T15:04:42.991Z,6.00
2022-12-31T15:07:17.307Z,5.90
2022-12-31T15:10:10.740Z,6.00
2022-12-31T15:12:56.811Z,6.10
2022-12-31T15:16:02.980Z,5.90
2022-12-31T15:18:44.700Z,6.10
2022-12-31T15:21:57.344Z,6.10
2022-12-31T15:24:28.486Z,6.10
2022-12-31T15:27:04.301Z,6.20
2022-12-31T15:29:35.753Z,6.00
2022-12-31T15:32:05.699Z,6.10
2022-12-31T15:34:37.207Z,6.00
2022-12-31T15:37:26.489Z,5.90
2022-12-31T15:40:16.867Z,5.80
2022-12-31T15:43:32.649Z,5.70
2022-12-31T15:46:02.457Z,5.70
2022-12-31T15:48:49.032Z,5.60
2022-12-31T15:51:33.169Z,5.70
2022-12-31T15:54:04.795Z,5.70
2022-12-31T15:56:35.128Z,5.60
2022-12-31T15:59:07.315Z,5.50
2022-12-31T16:01:37.314Z,5.70
2022-12-31T16:04:09.192Z,5.70
2022-12-31T16:06:38.408Z,5.50
2022-12-31T16:09:21.239Z,5.60
2022-12-31T16:11:49.669Z,5.30
2022-12-31T16:14:35.336Z,5.50
2022-12-31T16:17:04.400Z,5.40
2022-12-31T16:19:51.226Z,5.50
2022-12-31T16:22:43.657Z,5.40
2022-12-31T16:25:30.538Z,5.40
2022-12-31T16:28:02.702Z,5.40
2022-12-31T16:30:38.091Z,5.40
2022-12-31T16:33:16.635Z,5.40
2022-12-31T16:35:58.138Z,5.30
2022-12-31T16:38:37.794Z,5.20
2022-12-31T16:41:17.955Z,5.10
2022-12-31T16:43:48.452Z,5.10
2022-12-31T16:46:21.228Z,5.30
2022-12-31T16:48:53.743Z,5.30
2022-12-31T16:51:25.386Z,5.30
2022-12-31T16:53:54.303Z,5.30
2022-12-31T16:56:35.132Z,5.40
2022-12-31T16:59:12.727Z,5.40
2022-12-31T17:01:41.666Z,5.40
2022-12-31T17:04:12.501Z,5.30
2022-12-31T17:06:40.477Z,5.20
2022-12-31T17:09:11.127Z,5.30
2022-12-31T17:11:55.958Z,5.30
2022-12-31T17:14:31.258Z,5.40
2022-12-31T17:17:08.905Z,5.30
2022-12-31T17:19:49.363Z,5.30
2022-12-31T17:22:30.743Z,5.40
2022-12-31T17:25:06.915Z,5.40
2022-12-31T17:27:37.062Z,5.20
2022-12-31T17:30:37.652Z,5.30
2022-12-31T17:33:25.437Z,5.30
2022-12-31T17:36:19.263Z,5.40
2022-12-31T17:38:47.665Z,5.50
2022-12-31T17:41:28.477Z,5.40
2022-12-31T17:43:57.724Z,5.40
2022-12-31T17:46:26.671Z,5.30
2022-12-31T17:48:59.836Z,5.20
2022-12-31T17:51:28.017Z,5.20
2022-12-31T17:53:56.705Z,5.20
2022-12-31T17:56:24.819Z,5.30
2022-12-31T17:58:55.197Z,5.30
2022-12-31T18:01:23.859Z,5.20
2022-12-31T18:03:52.921Z,5.20
2022-12-31T18:06:21.327Z,5.20
2022-12-31T18:08:49.337Z,5.20
2022-12-31T18:11:23.765Z,5.10
2022-12-31T18:13:53.672Z,5.10
2022-12-31T18:16:21.811Z,5.10
2022-12-31T18:18:51.481Z,5.10
2022-12-31T18:21:31.085Z,5.00
2022-12-31T18:26:30.056Z,4.80
2022-12-31T18:29:02.145Z,4.70
2022-12-31T18:31:31.152Z,4.60
2022-12-31T18:33:59.859Z,4.50
2022-12-31T18:36:28.945Z,4.50
2022-12-31T18:38:56.559Z,4.30
2022-12-31T18:41:28.351Z,4.10
2022-12-31T18:43:56.744Z,4.10
2022-12-31T18:46:26.875Z,3.90
2022-12-31T18:48:55.235Z,4.00
2022-12-31T18:51:31.298Z,3.90
2022-12-31T18:54:03.943Z,3.80
2022-12-31T18:56:32.637Z,3.70
2022-12-31T18:59:03.190Z,3.70
2022-12-31T19:01:37.319Z,3.60
2022-12-31T19:04:14.737Z,3.50
2022-12-31T19:06:43.208Z,3.50
2022-12-31T19:09:42.897Z,3.50
2022-12-31T19:12:01.115Z,3.40
2022-12-31T19:14:29.442Z,3.40
2022-12-31T19:19:26.557Z,3.40
2022-12-31T19:21:54.662Z,3.40
2022-12-31T19:24:27.328Z,3.30
2022-12-31T19:26:55.925Z,3.30
2022-12-31T19:29:28.436Z,3.20
2022-12-31T19:31:58.385Z,3.00
2022-12-31T19:34:27.940Z,3.10
2022-12-31T19:36:56.685Z,3.10
2022-12-31T19:39:24.865Z,2.90
2022-12-31T19:41:58.832Z,2.90
2022-12-31T19:44:27.393Z,2.80
2022-12-31T19:46:55.139Z,2.80
2022-12-31T19:49:22.934Z,2.90
2022-12-31T19:51:50.737Z,3.00
2022-12-31T19:54:18.587Z,2.90
2022-12-31T19:56:46.726Z,2.90
2022-12-31T19:59:14.664Z,2.70
2022-12-31T20:01:42.885Z,2.80
2022-12-31T20:04:11.405Z,2.90
2022-12-31T20:06:39.825Z,2.80
2022-12-31T20:09:07.705Z,2.90
2022-12-31T20:11:35.479Z,2.90
2022-12-31T20:14:03.357Z,2.90
2022-12-31T20:16:32.914Z,3.00
2022-12-31T20:19:01.764Z,3.10
2022-12-31T20:21:30.807Z,3.00
2022-12-31T20:23:58.942Z,2.90
2022-12-31T20:26:26.840Z,2.80
2022-12-31T20:28:54.768Z,2.80
2022-12-31T20:31:26.080Z,3.00
2022-12-31T20:33:57.709Z,2.90
2022-12-31T20:36:26.924Z,2.80
2022-12-31T20:38:54.900Z,2.80
2022-12-31T20:41:23.642Z,2.70
2022-12-31T20:43:52.265Z,2.80
2022-12-31T20:46:25.496Z,2.80
2022-12-31T20:48:55.633Z,2.70
2022-12-31T20:51:25.109Z,2.60
2022-12-31T20:54:02.142Z,2.70
2022-12-31T20:56:32.519Z,2.70
2022-12-31T20:59:03.769Z,2.70
2022-12-31T21:01:55.183Z,2.70
2022-12-31T21:04:19.957Z,2.70
2022-12-31T21:06:49.247Z,2.60
2022-12-31T21:09:17.147Z,2.70
2022-12-31T21:12:03.705Z,2.70
2022-12-31T21:14:31.856Z,2.70
2022-12-31T21:17:01.989Z,2.70
2022-12-31T21:19:29.794Z,2.80
2022-12-31T21:21:57.604Z,2.80
2022-12-31T21:24:25.878Z,2.70
2022-12-31T21:26:57.302Z,2.70
2022-12-31T21:29:26.898Z,2.80
2022-12-31T21:31:56.535Z,2.80
2022-12-31T21:34:24.191Z,2.70
2022-12-31T21:36:51.911Z,2.70
2022-12-31T21:39:20.167Z,2.60
2022-12-31T21:41:53.800Z,2.60
2022-12-31T21:44:24.248Z,2.60
2022-12-31T21:47:41.251Z,2.60
2022-12-31T21:50:09.642Z,2.60
2022-12-31T21:52:37.240Z,2.50
2022-12-31T21:55:24.384Z,2.40
2022-12-31T21:58:24.739Z,2.30
2022-12-31T22:00:59.322Z,2.40
2022-12-31T22:03:28.529Z,2.40
2022-12-31T22:06:14.395Z,2.40
2022-12-31T22:08:45.128Z,2.40
2022-12-31T22:11:15.360Z,2.40
2022-12-31T22:13:43.363Z,2.40
2022-12-31T22:16:13.301Z,2.30
2022-12-31T22:18:43.504Z,2.40
2022-12-31T22:21:19.531Z,2.30
2022-12-31T22:23:52.940Z,2.30
2022-12-31T22:26:24.595Z,2.20
2022-12-31T22:28:52.911Z,2.20
2022-12-31T22:31:24.518Z,2.20
2022-12-31T22:33:53.139Z,2.20
2022-12-31T22:36:22.642Z,2.20
2022-12-31T22:38:54.417Z,2.10
2022-12-31T22:41:23.254Z,2.20
2022-12-31T22:43:58.642Z,2.20
2022-12-31T22:46:31.169Z,2.10
2022-12-31T22:49:00.115Z,2.00
2022-12-31T22:51:57.791Z,2.00
2022-12-31T22:54:16.909Z,1.90
2022-12-31T22:56:45.043Z,1.90
2022-12-31T22:59:13.975Z,1.90
2022-12-31T23:01:41.761Z,1.90
2022-12-31T23:04:09.991Z,1.70
2022-12-31T23:06:44.205Z,1.80
2022-12-31T23:09:32.779Z,1.80
2022-12-31T23:12:01.514Z,1.90
2022-12-31T23:14:47.700Z,1.90
2022-12-31T23:17:40.780Z,2.00
2022-12-31T23:20:33.199Z,2.00
2022-12-31T23:23:10.128Z,2.00
2022-12-31T23:25:42.700Z,1.90
2022-12-31T23:28:14.413Z,1.80
2022-12-31T23:30:43.694Z,1.90
2022-12-31T23:33:23.704Z,1.80
2022-12-31T23:36:01.824Z,1.80
2022-12-31T23:38:29.504Z,1.80
2022-12-31T23:40:57.178Z,1.70
2022-12-31T23:43:25.045Z,1.70
2022-12-31T23:45:53.632Z,1.60
2022-12-31T23:48:21.902Z,1.70
2022-12-31T23:50:53.933Z,1.70
2022-12-31T23:53:23.965Z,1.80
2022-12-31T23:55:53.346Z,1.80
2022-12-31T23:58:21.906Z,1.60
